General Aviation Weather

Text Reports

Enter one or more of the following location identifiers separated by a space:

Zip Code, Four-Character ICAO or Three-Character IATA airport codes.

METAR - Aviation Routine Weather Report
KNYC - Central Park, New York
Updated at 8:51 PM GMT on May 29, 2015 (4:51 PM EDT):
METAR KNYC 292051Z AUTO VRB04KT 10SM CLR 26/13 A3026 RMK AO2 SLP236 T02560128 58008
TAF - Terminal Area Forecast
KNYC - Central Park, New York
Updated at 8:51 PM GMT on May 29, 2015 (4:51 PM EDT):
No TAF is currently available for this location.
Decoded:
No decoded TAF is available.
PIREP - Pilot Weather Report
KNYC - Central Park, New York
Updated at 8:51 PM GMT on May 29, 2015 (4:51 PM EDT):
No PIREP is currently available for this location.
AIRMET - Airmens Meteorological Information
KNYC - Central Park, New York
Updated at 8:51 PM GMT on May 29, 2015 (4:51 PM EDT):
No AIRMET is currently available for this location.
SIGMET - Significant Meteorological Information
KNYC - Central Park, New York
Updated at 8:51 PM GMT on May 29, 2015 (4:51 PM EDT):
No SIGMET is currently available for this location.
NOTAM - Notice to Airmen
KNYC - Central Park, New York
Updated at 8:51 PM GMT on May 29, 2015 (4:51 PM EDT):
No NOTAM is currently available for this location.
Forecast Area
KNYC - Central Park, New York
Updated at 8:51 PM GMT on May 29, 2015 (4:51 PM EDT):
No NOTAM is currently available for this location.
Aviation Weather Maps